createdAt,value
2019-02-22T00:00:37.853Z,67.30
2019-02-22T00:03:09.306Z,67.67
2019-02-22T00:05:41.165Z,67.80
2019-02-22T00:08:15.687Z,67.52
2019-02-22T00:10:47.292Z,67.47
2019-02-22T00:13:18.716Z,68.48
2019-02-22T00:15:51.659Z,67.97
2019-02-22T00:18:23.018Z,67.55
2019-02-22T00:20:54.487Z,67.57
2019-02-22T00:23:27.529Z,67.50
2019-02-22T00:25:58.983Z,67.78
2019-02-22T00:28:32.042Z,68.37
2019-02-22T00:31:03.487Z,69.18
2019-02-22T00:33:37.485Z,69.67
2019-02-22T00:36:08.567Z,69.65
2019-02-22T00:38:40.565Z,70.03
2019-02-22T00:41:14.837Z,70.77
2019-02-22T00:43:46.262Z,71.72
2019-02-22T00:46:17.716Z,72.75
2019-02-22T00:48:49.134Z,71.92
2019-02-22T00:51:20.586Z,71.90
2019-02-22T00:53:51.984Z,72.33
2019-02-22T00:56:24.415Z,73.13
2019-02-22T00:58:55.770Z,73.30
2019-02-22T01:01:27.204Z,73.93
2019-02-22T01:04:00.719Z,76.58
2019-02-22T01:06:32.223Z,77.14
2019-02-22T01:09:05.735Z,77.07
2019-02-22T01:11:37.267Z,78.37
2019-02-22T01:14:08.696Z,78.96
2019-02-22T01:16:41.371Z,79.45
2019-02-22T01:19:12.792Z,80.14
2019-02-22T01:21:44.228Z,80.53
2019-02-22T01:24:17.135Z,80.20
2019-02-22T01:26:50.133Z,79.81
2019-02-22T01:29:21.567Z,79.94
2019-02-22T01:31:53.015Z,79.67
2019-02-22T01:34:26.580Z,80.11
2019-02-22T01:36:58.023Z,80.08
2019-02-22T01:39:31.234Z,80.37
2019-02-22T01:42:02.720Z,80.09
2019-02-22T01:44:34.173Z,80.21
2019-02-22T01:47:05.684Z,79.90
2019-02-22T01:49:37.032Z,79.81
2019-02-22T01:52:08.481Z,79.80
2019-02-22T01:54:39.903Z,80.42
2019-02-22T01:57:11.368Z,80.29
2019-02-22T01:59:42.794Z,80.37
2019-02-22T02:02:14.254Z,80.59
2019-02-22T02:04:45.633Z,80.65
2019-02-22T02:07:17.103Z,80.04
2019-02-22T02:09:50.284Z,79.94
2019-02-22T02:12:23.355Z,80.26
2019-02-22T02:14:54.768Z,80.21
2019-02-22T02:17:28.800Z,80.56
2019-02-22T02:19:59.900Z,80.41
2019-02-22T02:22:31.340Z,80.24
2019-02-22T02:25:02.742Z,80.79
2019-02-22T02:27:34.484Z,80.79
2019-02-22T02:30:06.581Z,81.11
2019-02-22T02:32:38.026Z,80.63
2019-02-22T02:35:10.113Z,80.98
2019-02-22T02:37:41.559Z,80.50
2019-02-22T02:40:12.987Z,81.33
2019-02-22T02:42:44.430Z,81.00
2019-02-22T02:45:18.381Z,80.19
2019-02-22T02:47:49.677Z,80.69
2019-02-22T02:50:21.107Z,80.26
2019-02-22T02:52:53.256Z,80.83
2019-02-22T02:55:35.764Z,81.78
2019-02-22T02:58:07.197Z,81.84
2019-02-22T03:00:38.730Z,80.73
2019-02-22T03:03:10.380Z,80.64
2019-02-22T03:06:03.518Z,80.42
2019-02-22T03:08:36.038Z,80.53
2019-02-22T03:11:19.654Z,79.66
2019-02-22T03:13:40.621Z,80.20
2019-02-22T03:16:12.038Z,80.69
2019-02-22T03:18:43.500Z,80.77
2019-02-22T03:21:16.130Z,81.03
2019-02-22T03:23:47.640Z,81.20
2019-02-22T03:26:19.082Z,81.17
2019-02-22T03:28:50.517Z,80.19
2019-02-22T03:31:21.962Z,81.42
2019-02-22T03:33:53.338Z,80.71
2019-02-22T03:36:27.254Z,80.78
2019-02-22T03:38:58.721Z,81.08
2019-02-22T03:41:33.339Z,82.15
2019-02-22T03:44:04.378Z,81.99
2019-02-22T03:46:35.706Z,82.17
2019-02-22T03:49:07.294Z,82.34
2019-02-22T03:51:40.361Z,82.80
2019-02-22T03:54:12.703Z,82.64
2019-02-22T03:57:00.424Z,83.14
2019-02-22T03:59:31.854Z,83.39
2019-02-22T04:02:06.108Z,83.54
2019-02-22T04:04:37.641Z,83.59
2019-02-22T04:07:09.056Z,84.23
2019-02-22T04:09:40.501Z,83.97
2019-02-22T04:12:11.848Z,83.51
2019-02-22T04:14:43.291Z,83.40
2019-02-22T04:17:14.824Z,83.86
2019-02-22T04:19:48.694Z,83.98
2019-02-22T04:22:20.153Z,84.14
2019-02-22T04:24:51.593Z,85.09
2019-02-22T04:27:23.026Z,84.74
2019-02-22T04:29:54.498Z,84.90
2019-02-22T04:32:25.857Z,85.94
2019-02-22T04:34:57.903Z,84.70
2019-02-22T04:37:29.319Z,85.28
2019-02-22T04:40:00.756Z,85.06
2019-02-22T04:42:33.945Z,84.85
2019-02-22T04:45:05.668Z,84.72
2019-02-22T04:47:37.009Z,85.05
2019-02-22T04:50:11.642Z,85.86
2019-02-22T04:52:43.071Z,85.70
2019-02-22T04:55:16.125Z,85.76
2019-02-22T04:57:50.191Z,86.48
2019-02-22T05:00:25.566Z,86.71
2019-02-22T05:02:56.991Z,86.70
2019-02-22T05:05:30.266Z,87.02
2019-02-22T05:08:02.796Z,87.11
2019-02-22T05:10:34.665Z,86.73
2019-02-22T05:13:08.318Z,86.81
2019-02-22T05:15:44.330Z,86.94
2019-02-22T05:18:28.431Z,87.54
2019-02-22T05:21:11.296Z,87.28
2019-02-22T05:23:45.207Z,87.01
2019-02-22T05:26:18.398Z,87.74
2019-02-22T05:28:53.941Z,87.52
2019-02-22T05:31:27.419Z,87.97
2019-02-22T05:34:02.821Z,88.00
2019-02-22T05:36:36.332Z,87.92
2019-02-22T05:39:19.401Z,87.82
2019-02-22T05:41:52.261Z,87.85
2019-02-22T05:44:26.171Z,88.81
2019-02-22T05:47:01.351Z,89.33
2019-02-22T05:49:35.915Z,88.90
2019-02-22T05:52:13.330Z,89.55
2019-02-22T05:54:48.757Z,89.43
2019-02-22T05:57:27.993Z,89.37
2019-02-22T06:00:06.451Z,88.16
2019-02-22T06:02:48.098Z,89.01
2019-02-22T06:05:29.168Z,88.46
2019-02-22T06:08:04.124Z,88.95
2019-02-22T06:10:37.967Z,88.73
2019-02-22T06:13:13.965Z,88.44
2019-02-22T06:15:48.185Z,89.48
2019-02-22T06:18:23.118Z,88.88
2019-02-22T06:21:02.570Z,88.34
2019-02-22T06:23:39.602Z,89.04
2019-02-22T06:26:17.226Z,89.12
2019-02-22T06:28:54.954Z,89.20
2019-02-22T06:31:27.456Z,89.54
2019-02-22T06:34:04.831Z,89.87
2019-02-22T06:36:44.855Z,89.27
2019-02-22T06:39:18.980Z,89.84
2019-02-22T06:41:50.884Z,90.23
2019-02-22T06:44:32.185Z,89.94
2019-02-22T06:47:06.358Z,90.34
2019-02-22T06:49:41.282Z,90.58
2019-02-22T06:52:33.159Z,90.84
2019-02-22T06:55:05.169Z,91.18
2019-02-22T06:57:48.170Z,90.65
2019-02-22T07:00:31.145Z,90.99
2019-02-22T07:03:06.977Z,91.11
2019-02-22T07:05:41.369Z,90.93
2019-02-22T07:08:14.831Z,90.59
2019-02-22T07:11:16.323Z,89.84
2019-02-22T07:13:49.803Z,90.25
2019-02-22T07:16:24.212Z,90.00
2019-02-22T07:19:00.133Z,89.61
2019-02-22T07:21:49.195Z,90.01
2019-02-22T07:24:11.750Z,90.27
2019-02-22T07:26:45.366Z,89.85
2019-02-22T07:29:22.229Z,90.76
2019-02-22T07:32:05.763Z,91.51
2019-02-22T07:34:42.828Z,90.55
2019-02-22T07:37:16.415Z,90.94
2019-02-22T07:39:58.893Z,90.94
2019-02-22T07:42:34.921Z,91.01
2019-02-22T07:45:12.250Z,90.09
2019-02-22T07:47:47.561Z,91.05
2019-02-22T07:50:20.088Z,91.01
2019-02-22T07:52:52.162Z,91.25
2019-02-22T07:55:27.486Z,91.17
2019-02-22T07:58:05.246Z,90.96
2019-02-22T08:00:49.244Z,91.63
2019-02-22T08:03:24.196Z,91.12
2019-02-22T08:05:59.704Z,89.54
2019-02-22T08:08:32.945Z,90.36
2019-02-22T08:11:07.500Z,90.79
2019-02-22T08:13:42.210Z,90.79
2019-02-22T08:16:16.024Z,90.83
2019-02-22T08:18:48.173Z,90.53
2019-02-22T08:21:22.746Z,89.73
2019-02-22T08:23:56.186Z,91.26
2019-02-22T08:26:31.045Z,90.54
2019-02-22T08:29:04.419Z,90.44
2019-02-22T08:31:38.076Z,90.38
2019-02-22T08:34:17.702Z,91.08
2019-02-22T08:36:51.972Z,90.21
2019-02-22T08:39:42.387Z,90.34
2019-02-22T08:42:21.814Z,90.74
2019-02-22T08:44:54.629Z,89.83
2019-02-22T08:47:32.602Z,90.29
2019-02-22T08:50:05.297Z,89.83
2019-02-22T08:55:36.667Z,91.02
2019-02-22T08:58:09.556Z,90.84
2019-02-22T09:00:40.982Z,90.74
2019-02-22T09:03:12.522Z,90.96
2019-02-22T09:05:43.937Z,90.69
2019-02-22T09:08:15.502Z,91.09
2019-02-22T09:10:47.017Z,90.64
2019-02-22T09:13:21.301Z,91.13
2019-02-22T09:15:53.902Z,90.14
2019-02-22T09:18:25.358Z,90.38
2019-02-22T09:20:56.794Z,90.59
2019-02-22T09:23:28.338Z,90.56
2019-02-22T09:25:59.811Z,89.82
2019-02-22T09:28:31.792Z,90.20
2019-02-22T09:31:05.228Z,90.56
2019-02-22T09:33:39.319Z,90.73
2019-02-22T09:36:10.794Z,90.54
2019-02-22T09:38:42.238Z,89.80
2019-02-22T09:41:14.744Z,90.41
2019-02-22T09:43:55.055Z,89.42
2019-02-22T09:46:23.538Z,89.64
2019-02-22T09:48:56.942Z,89.39
2019-02-22T09:51:31.098Z,89.99
2019-02-22T09:54:02.580Z,89.50
2019-02-22T09:56:34.114Z,89.24
2019-02-22T09:59:05.582Z,89.47
2019-02-22T10:01:37.246Z,89.38
2019-02-22T10:04:10.926Z,89.34
2019-02-22T10:06:46.202Z,88.66
2019-02-22T10:09:23.808Z,88.30
2019-02-22T10:11:55.516Z,87.02
2019-02-22T10:14:28.903Z,87.47
2019-02-22T10:17:07.950Z,86.42
2019-02-22T10:19:44.608Z,86.92
2019-02-22T10:22:16.738Z,87.55
2019-02-22T10:24:49.653Z,87.44
2019-02-22T10:27:23.471Z,86.57
2019-02-22T10:29:54.930Z,86.36
2019-02-22T10:32:27.447Z,85.96
2019-02-22T10:34:58.914Z,86.41
2019-02-22T10:37:31.558Z,87.54
2019-02-22T10:40:05.231Z,86.77
2019-02-22T10:42:36.704Z,86.17
2019-02-22T10:45:11.427Z,86.44
2019-02-22T10:47:42.872Z,86.62
2019-02-22T10:50:14.321Z,85.12
2019-02-22T10:52:48.933Z,84.53
2019-02-22T10:55:20.407Z,83.80
2019-02-22T10:57:51.966Z,85.20
2019-02-22T11:00:23.341Z,83.58
2019-02-22T11:02:57.155Z,84.38
2019-02-22T11:05:31.354Z,84.60
2019-02-22T11:08:02.804Z,84.80
2019-02-22T11:10:34.194Z,84.73
2019-02-22T11:13:05.622Z,83.97
2019-02-22T11:15:40.209Z,83.17
2019-02-22T11:18:11.658Z,83.70
2019-02-22T11:20:43.107Z,83.56
2019-02-22T11:23:14.510Z,82.97
2019-02-22T11:25:47.607Z,82.58
2019-02-22T11:28:22.164Z,82.39
2019-02-22T11:30:56.071Z,81.95
2019-02-22T11:33:33.422Z,82.11
2019-02-22T11:36:16.924Z,82.69
2019-02-22T11:38:51.900Z,82.08
2019-02-22T11:41:25.857Z,82.56
2019-02-22T11:44:10.621Z,82.24
2019-02-22T11:46:45.694Z,82.13
2019-02-22T11:49:20.498Z,82.08
2019-02-22T11:51:51.942Z,82.15
2019-02-22T11:54:23.367Z,81.20
2019-02-22T11:56:55.856Z,79.74
2019-02-22T11:59:46.917Z,78.18
2019-02-22T12:02:20.001Z,79.81
2019-02-22T12:04:51.448Z,79.22
2019-02-22T12:07:22.938Z,78.29
2019-02-22T12:09:54.382Z,77.98
2019-02-22T12:12:25.895Z,77.52
2019-02-22T12:14:59.393Z,77.95
2019-02-22T12:17:34.393Z,77.58
2019-02-22T12:20:09.314Z,77.66
2019-02-22T12:22:49.003Z,77.41
2019-02-22T12:25:30.184Z,77.57
2019-02-22T12:28:08.150Z,76.46
2019-02-22T12:30:46.060Z,76.40
2019-02-22T12:33:20.297Z,75.03
2019-02-22T12:35:56.819Z,74.80
2019-02-22T12:38:35.167Z,74.34
2019-02-22T12:41:11.844Z,73.00
2019-02-22T12:43:49.886Z,73.44
2019-02-22T12:46:50.355Z,73.24
2019-02-22T12:49:23.987Z,73.12
2019-02-22T12:52:03.100Z,73.23
2019-02-22T12:54:33.175Z,72.69
2019-02-22T12:57:09.455Z,72.86
2019-02-22T12:59:48.053Z,72.88
2019-02-22T13:02:24.211Z,73.52
2019-02-22T13:04:59.118Z,72.50
2019-02-22T13:07:39.274Z,72.00
2019-02-22T13:10:13.067Z,72.83
2019-02-22T13:12:51.926Z,72.06
2019-02-22T13:15:28.475Z,71.45
2019-02-22T13:18:03.104Z,71.09
2019-02-22T13:20:41.336Z,70.25
2019-02-22T13:23:16.919Z,70.62
2019-02-22T13:25:59.220Z,70.90
2019-02-22T13:28:56.026Z,70.84
2019-02-22T13:31:30.516Z,71.31
2019-02-22T13:34:03.312Z,70.59
2019-02-22T13:36:38.619Z,70.84
2019-02-22T13:39:14.573Z,71.44
2019-02-22T13:41:51.877Z,70.99
2019-02-22T13:44:26.785Z,70.34
2019-02-22T13:47:04.562Z,69.37
2019-02-22T13:49:43.130Z,70.03
2019-02-22T13:52:15.202Z,69.66
2019-02-22T13:54:48.691Z,69.67
2019-02-22T13:57:26.305Z,70.19
2019-02-22T14:00:05.674Z,69.02
2019-02-22T14:03:05.144Z,69.54
2019-02-22T14:05:51.971Z,68.71
2019-02-22T14:08:27.028Z,67.18
2019-02-22T14:11:01.381Z,68.19
2019-02-22T14:13:59.168Z,68.73
2019-02-22T14:16:35.305Z,68.20
2019-02-22T14:19:13.697Z,68.36
2019-02-22T14:21:57.901Z,67.95
2019-02-22T14:24:39.287Z,68.43
2019-02-22T14:27:24.365Z,69.04
2019-02-22T14:30:05.113Z,67.34
2019-02-22T14:32:37.595Z,66.91
2019-02-22T14:35:12.832Z,66.99
2019-02-22T14:37:46.254Z,66.56
2019-02-22T14:40:21.288Z,66.04
2019-02-22T14:43:27.258Z,67.17
2019-02-22T14:45:53.366Z,67.39
2019-02-22T14:48:33.499Z,66.93
2019-02-22T14:51:08.637Z,65.82
2019-02-22T14:53:45.759Z,67.64
2019-02-22T14:56:25.859Z,67.03
2019-02-22T14:59:01.223Z,66.76
2019-02-22T15:01:55.499Z,67.34
2019-02-22T15:04:29.363Z,66.95
2019-02-22T15:07:09.779Z,67.66
2019-02-22T15:09:46.139Z,67.50
2019-02-22T15:12:25.010Z,68.33
2019-02-22T15:15:02.248Z,68.93
2019-02-22T15:17:50.198Z,70.07
2019-02-22T15:20:24.489Z,69.65
2019-02-22T15:23:05.718Z,69.83
2019-02-22T15:25:37.252Z,69.60
2019-02-22T15:28:08.799Z,69.38
2019-02-22T15:30:45.242Z,70.23
2019-02-22T15:33:19.195Z,69.41
2019-02-22T15:35:53.930Z,69.78
2019-02-22T15:38:27.504Z,69.62
2019-02-22T15:41:04.287Z,70.21
2019-02-22T15:43:37.278Z,70.04
2019-02-22T15:46:12.611Z,70.44
2019-02-22T15:48:46.956Z,70.51
2019-02-22T15:51:20.670Z,70.60
2019-02-22T15:53:52.302Z,70.99
2019-02-22T15:56:30.565Z,70.91
2019-02-22T15:59:07.122Z,71.25
2019-02-22T16:01:43.054Z,70.57
2019-02-22T16:04:34.747Z,69.29
2019-02-22T16:07:06.863Z,70.17
2019-02-22T16:09:42.317Z,69.21
2019-02-22T16:12:20.414Z,69.96
2019-02-22T16:15:04.130Z,69.89
2019-02-22T16:17:53.379Z,70.51
2019-02-22T16:20:29.928Z,71.27
2019-02-22T16:23:04.541Z,70.09
2019-02-22T16:25:41.112Z,71.34
2019-02-22T16:28:20.744Z,70.87
2019-02-22T16:30:53.001Z,71.69
2019-02-22T16:33:26.787Z,71.86
2019-02-22T16:36:03.624Z,71.39
2019-02-22T16:38:48.375Z,70.24
2019-02-22T16:41:26.072Z,69.21
2019-02-22T16:43:58.800Z,69.25
2019-02-22T16:46:36.641Z,69.06
2019-02-22T16:49:14.391Z,68.77
2019-02-22T16:51:54.293Z,68.15
2019-02-22T16:54:33.349Z,68.82
2019-02-22T16:57:10.426Z,68.25
2019-02-22T16:59:54.315Z,68.78
2019-02-22T17:02:27.852Z,69.34
2019-02-22T17:04:59.349Z,69.77
2019-02-22T17:07:30.798Z,69.78
2019-02-22T17:10:02.339Z,69.50
2019-02-22T17:12:42.668Z,69.98
2019-02-22T17:15:17.796Z,70.32
2019-02-22T17:17:53.314Z,70.59
2019-02-22T17:20:27.266Z,70.73
2019-02-22T17:23:08.018Z,71.16
2019-02-22T17:25:48.096Z,71.09
2019-02-22T17:28:20.985Z,71.42
2019-02-22T17:30:53.193Z,71.87
2019-02-22T17:33:27.463Z,71.83
2019-02-22T17:36:11.908Z,72.40
2019-02-22T17:38:48.389Z,72.59
2019-02-22T17:41:22.389Z,72.89
2019-02-22T17:44:09.143Z,73.08
2019-02-22T17:46:44.453Z,73.35
2019-02-22T17:49:15.917Z,74.10
2019-02-22T17:51:47.448Z,74.24
2019-02-22T17:54:18.941Z,74.79
2019-02-22T17:56:50.395Z,74.82
2019-02-22T17:59:36.493Z,75.07
2019-02-22T18:02:12.187Z,75.17
2019-02-22T18:04:49.364Z,75.40
2019-02-22T18:07:25.581Z,75.70
2019-02-22T18:10:08.505Z,76.26
2019-02-22T18:12:44.968Z,75.74
2019-02-22T18:15:18.426Z,76.38
2019-02-22T18:17:53.426Z,76.88
2019-02-22T18:20:33.056Z,76.90
2019-02-22T18:23:09.255Z,76.69
2019-02-22T18:25:51.751Z,77.00
2019-02-22T18:28:28.235Z,76.83
2019-02-22T18:31:08.946Z,77.05
2019-02-22T18:33:42.791Z,77.77
2019-02-22T18:36:14.239Z,77.90
2019-02-22T18:38:48.912Z,77.89
